Time;durP1;ratioP1;P1;durP2;ratioP2;P2;SDS_P1;SDS_P2;PMS_P1;PMS_P2;Temp;Humidity;BMP_temperature;BMP_pressure;BME280_temperature;BME280_humidity;BME280_pressure;Samples;Min_cycle;Max_cycle;Signal;HPM_P1;HPM_P2
2021/09/23 00:02:23;;;;;;;3.22;2.05;;;;;;;17.40;48.68;99559.45;1782052;79;21064;-60
2021/09/23 00:04:43;;;;;;;2.12;1.92;;;;;;;17.39;48.68;99561.33;1789368;79;20994;-59
2021/09/23 00:07:10;;;;;;;1.92;1.77;;;;;;;17.39;48.68;99562.67;1786352;79;21044;-59
2021/09/23 00:09:36;;;;;;;2.70;2.20;;;;;;;17.39;48.68;99561.86;1807687;78;21104;-58
2021/09/23 00:12:03;;;;;;;2.67;1.90;;;;;;;17.38;48.68;99562.35;1779820;78;21045;-60
2021/09/23 00:14:30;;;;;;;1.80;1.70;;;;;;;17.38;48.67;99565.04;1769815;79;21049;-59
2021/09/23 00:16:58;;;;;;;2.77;2.37;;;;;;;17.38;48.67;99562.35;1776347;79;21077;-59
2021/09/23 00:19:25;;;;;;;2.00;1.80;;;;;;;17.37;48.66;99562.06;1773760;80;21002;-59
2021/09/23 00:21:53;;;;;;;2.12;1.92;;;;;;;17.37;48.65;99565.28;1784552;79;21006;-59
2021/09/23 00:24:21;;;;;;;2.30;2.02;;;;;;;17.38;48.63;99568.25;1783642;79;21088;-59
2021/09/23 00:26:48;;;;;;;1.80;1.70;;;;;;;17.37;48.64;99565.28;1772523;79;21377;-59
2021/09/23 00:29:14;;;;;;;1.80;1.70;;;;;;;17.37;48.64;99567.44;1789013;78;21692;-59
2021/09/23 00:31:41;;;;;;;2.30;2.10;;;;;;;17.36;48.64;99568.46;1788204;79;21063;-59
2021/09/23 00:34:08;;;;;;;2.35;2.15;;;;;;;17.35;48.63;99562.80;1776186;79;21129;-59
2021/09/23 00:36:34;;;;;;;2.08;1.87;;;;;;;17.36;48.63;99563.09;1774647;79;21518;-58
2021/09/23 00:39:01;;;;;;;2.22;2.02;;;;;;;17.35;48.64;99560.65;1773691;79;21536;-60
2021/09/23 00:41:27;;;;;;;2.50;2.30;;;;;;;17.35;48.63;99559.30;1779041;80;21002;-59
2021/09/23 00:43:53;;;;;;;2.25;2.05;;;;;;;17.35;48.61;99564.15;1788089;79;21011;-58
2021/09/23 00:46:20;;;;;;;2.50;2.30;;;;;;;17.35;48.60;99555.28;1765253;79;21082;-59
2021/09/23 00:48:50;;;;;;;1.72;1.62;;;;;;;17.34;48.61;99558.98;1773648;79;21042;-60
2021/09/23 00:51:19;;;;;;;2.47;2.08;;;;;;;17.34;48.60;99555.77;1783020;79;21017;-58
2021/09/23 00:53:46;;;;;;;1.95;1.77;;;;;;;17.34;48.60;99554.96;1778362;78;21057;-58
2021/09/23 00:56:14;;;;;;;2.25;2.05;;;;;;;17.34;48.60;99554.96;1771748;79;21053;-58
2021/09/23 00:58:42;;;;;;;2.37;2.10;;;;;;;17.33;48.58;99558.17;1751216;80;21633;-59
2021/09/23 01:01:09;;;;;;;1.90;1.80;;;;;;;17.32;48.58;99559.20;1765952;79;21124;-57
2021/09/23 01:03:37;;;;;;;1.92;1.72;;;;;;;17.33;48.59;99560.86;1767958;78;21046;-59
2021/09/23 01:06:05;;;;;;;1.98;1.75;;;;;;;17.31;48.59;99557.56;1772408;78;21006;-59
2021/09/23 01:08:32;;;;;;;2.08;1.87;;;;;;;17.31;48.58;99556.23;1762203;80;21508;-58
2021/09/23 01:10:59;;;;;;;1.87;1.77;;;;;;;17.32;48.59;99555.17;1772811;79;21099;-58
2021/09/23 01:13:28;;;;;;;2.05;1.85;;;;;;;17.31;48.56;99560.25;1783298;79;21084;-58
2021/09/23 01:15:59;;;;;;;2.15;1.92;;;;;;;17.31;48.58;99561.59;1769296;78;21045;-60
2021/09/23 01:18:27;;;;;;;2.02;1.82;;;;;;;17.31;48.56;99558.91;1778478;79;21124;-57
2021/09/23 01:20:55;;;;;;;2.20;2.00;;;;;;;17.31;48.58;99560.25;1797367;78;21537;-58
2021/09/23 01:23:23;;;;;;;2.02;1.82;;;;;;;17.29;48.57;99561.80;1790347;79;21062;-60
2021/09/23 01:25:50;;;;;;;2.40;2.20;;;;;;;17.29;48.57;99555.09;1784312;79;21037;-58
2021/09/23 01:28:17;;;;;;;2.25;2.10;;;;;;;17.28;48.56;99553.96;1793869;79;21723;-59
2021/09/23 01:30:45;;;;;;;2.15;1.95;;;;;;;17.29;48.55;99556.97;1785301;79;20998;-58
2021/09/23 01:33:12;;;;;;;2.00;1.90;;;;;;;17.28;48.55;99556.64;1782561;79;21619;-58
2021/09/23 01:35:38;;;;;;;2.10;1.90;;;;;;;17.28;48.56;99559.33;1787025;79;21325;-59
2021/09/23 01:38:05;;;;;;;2.02;1.92;;;;;;;17.27;48.56;99554.48;1789154;78;20990;-57
2021/09/23 01:40:32;;;;;;;1.77;1.67;;;;;;;17.26;48.55;99557.38;1768806;79;21504;-58
2021/09/23 01:43:00;;;;;;;1.87;1.77;;;;;;;17.26;48.56;99559.54;1777378;79;21057;-58
2021/09/23 01:45:27;;;;;;;2.10;1.90;;;;;;;17.26;48.55;99560.88;1792669;79;21006;-58
2021/09/23 01:47:55;;;;;;;2.12;1.90;;;;;;;17.26;48.53;99566.78;1773778;80;21146;-58
2021/09/23 01:50:24;;;;;;;1.85;1.75;;;;;;;17.26;48.52;99563.56;1747733;79;21131;-59
2021/09/23 01:52:54;;;;;;;2.35;2.15;;;;;;;17.25;48.53;99568.66;1780663;80;21104;-58
2021/09/23 01:55:20;;;;;;;2.12;1.98;;;;;;;17.24;48.53;99556.25;1763024;79;21124;-58
2021/09/23 01:57:47;;;;;;;1.70;1.60;;;;;;;17.25;48.53;99559.78;1774910;79;21097;-58
2021/09/23 02:00:15;;;;;;;1.80;1.70;;;;;;;17.24;48.54;99564.83;1759252;79;21132;-57
2021/09/23 02:02:43;;;;;;;3.33;2.22;;;;;;;17.24;48.54;99558.13;1790265;79;20987;-59
2021/09/23 02:05:13;;;;;;;2.02;1.87;;;;;;;17.25;48.52;99562.47;1778564;79;21100;-58
2021/09/23 02:07:40;;;;;;;2.20;1.87;;;;;;;17.24;48.53;99563.48;1778003;78;21670;-59
2021/09/23 02:10:10;;;;;;;2.60;1.95;;;;;;;17.23;48.54;99560.48;1762214;79;21073;-58
2021/09/23 02:12:37;;;;;;;2.20;2.00;;;;;;;17.21;48.52;99559.39;1766699;78;21092;-59
2021/09/23 02:15:07;;;;;;;1.80;1.70;;;;;;;17.22;48.52;99566.91;1790157;78;20980;-59
2021/09/23 02:17:36;;;;;;;2.45;1.90;;;;;;;17.21;48.53;99561.22;1778935;79;21013;-59
2021/09/23 02:20:07;;;;;;;1.80;1.70;;;;;;;17.21;48.53;99557.20;1759698;79;21049;-58
2021/09/23 02:22:37;;;;;;;1.77;1.67;;;;;;;17.21;48.53;99563.91;1771901;79;21522;-58
2021/09/23 02:25:05;;;;;;;2.08;1.87;;;;;;;17.20;48.53;99557.73;1781335;80;21137;-59
2021/09/23 02:27:32;;;;;;;1.80;1.70;;;;;;;17.19;48.51;99552.07;1788854;79;21015;-58
2021/09/23 02:30:03;;;;;;;1.85;1.67;;;;;;;17.19;48.50;99548.54;1793922;78;21037;-58
2021/09/23 02:32:28;;;;;;;1.90;1.80;;;;;;;17.20;48.50;99551.55;1767903;79;21732;-57
2021/09/23 02:34:56;;;;;;;2.17;2.00;;;;;;;17.20;48.50;99551.55;1765129;79;21064;-58
2021/09/23 02:37:24;;;;;;;2.08;1.87;;;;;;;17.18;48.50;99549.07;1773039;78;23274;-58
2021/09/23 02:39:51;;;;;;;1.90;1.80;;;;;;;17.19;48.48;99548.05;1769267;80;21013;-59
2021/09/23 02:42:19;;;;;;;2.00;1.75;;;;;;;17.18;48.49;99545.05;1763631;79;21090;-58
2021/09/23 02:44:47;;;;;;;1.80;1.70;;;;;;;17.19;48.48;99547.20;1759899;79;21065;-59
2021/09/23 02:47:14;;;;;;;2.05;1.70;;;;;;;17.19;48.49;99540.48;1798147;78;21073;-58
2021/09/23 02:49:41;;;;;;;2.00;1.90;;;;;;;17.18;48.47;99533.49;1780336;79;21048;-58
2021/09/23 02:52:09;;;;;;;1.65;1.55;;;;;;;17.18;48.47;99543.70;1778800;80;21001;-60
2021/09/23 02:54:35;;;;;;;1.60;1.50;;;;;;;17.17;48.47;99539.39;1774000;80;21022;-58
2021/09/23 02:57:03;;;;;;;1.75;1.60;;;;;;;17.17;48.48;99538.05;1786260;79;21109;-59
2021/09/23 02:59:29;;;;;;;2.08;1.98;;;;;;;17.17;48.46;99534.52;1782773;79;21052;-58
2021/09/23 03:01:55;;;;;;;1.90;1.80;;;;;;;17.16;48.46;99533.70;1752825;78;21033;-59
2021/09/23 03:04:22;;;;;;;1.72;1.60;;;;;;;17.17;48.46;99534.52;1788288;78;21037;-59
2021/09/23 03:06:50;;;;;;;1.67;1.57;;;;;;;17.17;48.45;99533.17;1786152;79;21596;-59
2021/09/23 03:09:17;;;;;;;1.75;1.65;;;;;;;17.16;48.45;99535.57;1775108;80;21128;-59
2021/09/23 03:11:45;;;;;;;1.90;1.80;;;;;;;17.15;48.45;99540.09;1784292;79;21014;-58
2021/09/23 03:14:11;;;;;;;2.50;2.02;;;;;;;17.15;48.45;99540.09;1797831;79;21070;-59
2021/09/23 03:16:42;;;;;;;1.80;1.70;;;;;;;17.15;48.45;99546.80;1785985;79;22254;-58
2021/09/23 03:19:08;;;;;;;2.25;1.87;;;;;;;17.15;48.45;99550.02;1781193;78;21041;-59
2021/09/23 03:21:37;;;;;;;2.80;1.95;;;;;;;17.15;48.45;99541.96;1796585;78;21029;-59
2021/09/23 03:24:06;;;;;;;2.08;1.72;;;;;;;17.14;48.44;99552.41;1787884;79;21022;-58
2021/09/23 03:26:32;;;;;;;2.00;1.80;;;;;;;17.13;48.42;99543.52;1790031;78;21141;-60
2021/09/23 03:29:01;;;;;;;1.70;1.60;;;;;;;17.12;48.44;99547.78;1789846;79;21104;-59
2021/09/23 03:31:28;;;;;;;1.85;1.75;;;;;;;17.11;48.45;99545.59;1794932;79;21030;-59
2021/09/23 03:33:56;;;;;;;2.00;1.80;;;;;;;17.12;48.44;99554.49;1798863;79;21029;-59
2021/09/23 03:36:24;;;;;;;2.25;2.05;;;;;;;17.12;48.44;99551.80;1800401;78;21100;-57
2021/09/23 03:38:54;;;;;;;2.27;2.08;;;;;;;17.12;48.44;99553.15;1791893;78;22084;-58
2021/09/23 03:41:20;;;;;;;2.02;1.90;;;;;;;17.10;48.42;99552.02;1785446;78;21057;-59
2021/09/23 03:43:46;;;;;;;1.67;1.57;;;;;;;17.09;48.43;99552.54;1788433;78;21020;-58
2021/09/23 03:46:13;;;;;;;2.00;1.90;;;;;;;17.09;48.42;99550.36;1792217;78;21101;-59
2021/09/23 03:48:41;;;;;;;1.85;1.72;;;;;;;17.09;48.45;99548.52;1771985;79;21018;-58
2021/09/23 03:51:09;;;;;;;2.30;2.10;;;;;;;17.09;48.43;99545.83;1780535;79;21621;-59
2021/09/23 03:53:38;;;;;;;1.95;1.85;;;;;;;17.09;48.42;99546.33;1783104;79;21032;-58
2021/09/23 03:56:06;;;;;;;1.80;1.70;;;;;;;17.09;48.41;99549.86;1775378;79;21006;-59
2021/09/23 03:58:34;;;;;;;2.15;1.95;;;;;;;17.09;48.42;99553.03;1771444;80;21058;-58
2021/09/23 04:01:02;;;;;;;2.52;2.17;;;;;;;17.08;48.42;99547.38;1771524;79;21568;-59
2021/09/23 04:03:31;;;;;;;1.82;1.72;;;;;;;17.08;48.42;99548.20;1747230;79;21210;-59
2021/09/23 04:05:58;;;;;;;1.80;1.70;;;;;;;17.08;48.41;99550.06;1773261;79;22296;-59
2021/09/23 04:08:24;;;;;;;1.80;1.70;;;;;;;17.08;48.40;99558.13;1770480;80;21082;-60
2021/09/23 04:10:50;;;;;;;1.85;1.65;;;;;;;17.08;48.40;99547.38;1776720;78;21049;-60
2021/09/23 04:13:19;;;;;;;2.20;2.00;;;;;;;17.07;48.41;99547.91;1778716;80;21088;-60
2021/09/23 04:15:49;;;;;;;2.70;1.70;;;;;;;17.07;48.38;99546.57;1771453;80;21105;-59
2021/09/23 04:18:18;;;;;;;1.98;1.70;;;;;;;17.06;48.38;99546.25;1774361;80;21549;-59
2021/09/23 04:20:48;;;;;;;1.90;1.80;;;;;;;17.07;48.38;99548.41;1780903;79;21123;-59
2021/09/23 04:23:14;;;;;;;1.60;1.50;;;;;;;17.06;48.37;99544.91;1781370;80;21588;-59
2021/09/23 04:25:40;;;;;;;1.90;1.80;;;;;;;17.07;48.38;99544.37;1783496;79;21046;-58
2021/09/23 04:28:07;;;;;;;1.90;1.80;;;;;;;17.06;48.35;99547.59;1786217;80;21805;-60
2021/09/23 04:30:34;;;;;;;1.95;1.85;;;;;;;17.07;48.37;99553.77;1774091;78;21036;-59
2021/09/23 04:33:00;;;;;;;7.83;2.15;;;;;;;17.07;48.35;99555.97;1770376;79;21056;-59
2021/09/23 04:35:28;;;;;;;2.08;1.98;;;;;;;17.06;48.34;99554.30;1776053;79;21073;-59
2021/09/23 04:37:54;;;;;;;2.17;1.98;;;;;;;17.06;48.32;99559.67;1758391;80;21076;-58
2021/09/23 04:40:21;;;;;;;1.90;1.80;;;;;;;17.07;48.33;99558.64;1775162;78;21143;-61
2021/09/23 04:42:48;;;;;;;2.37;2.17;;;;;;;17.07;48.31;99555.97;1762413;80;21065;-59
2021/09/23 04:45:15;;;;;;;1.92;1.82;;;;;;;17.06;48.31;99554.30;1777072;78;21537;-60
2021/09/23 04:47:43;;;;;;;1.82;1.72;;;;;;;17.07;48.30;99553.28;1771565;80;21049;-59
2021/09/23 04:50:10;;;;;;;2.10;1.90;;;;;;;17.07;48.30;99558.64;1765558;80;21592;-59
2021/09/23 04:52:38;;;;;;;2.00;1.90;;;;;;;17.07;48.29;99557.80;1784801;79;21592;-59
2021/09/23 04:55:07;;;;;;;1.95;1.85;;;;;;;17.07;48.30;99557.80;1782831;79;21073;-59
2021/09/23 04:57:33;;;;;;;2.10;1.90;;;;;;;17.06;48.28;99561.02;1766891;80;21090;-59
2021/09/23 05:00:06;;;;;;;2.00;1.90;;;;;;;17.07;48.28;99565.36;1761679;79;21466;-58
2021/09/23 05:02:35;;;;;;;2.12;1.92;;;;;;;17.07;48.29;99565.36;1752394;80;21047;-59
2021/09/23 05:05:01;;;;;;;1.95;1.85;;;;;;;17.07;48.27;99561.83;1776457;79;21828;-59
2021/09/23 05:07:28;;;;;;;2.45;2.20;;;;;;;17.06;48.28;99556.98;1789352;78;21041;-60
2021/09/23 05:09:55;;;;;;;2.05;1.90;;;;;;;17.06;48.27;99554.30;1781695;79;21022;-59
2021/09/23 05:12:23;;;;;;;2.00;1.77;;;;;;;17.07;48.27;99556.45;1784254;79;21537;-58
2021/09/23 05:14:50;;;;;;;2.05;1.92;;;;;;;17.08;48.25;99552.75;1779408;79;21060;-59
2021/09/23 05:17:17;;;;;;;2.33;2.12;;;;;;;17.07;48.24;99547.06;1775212;79;21138;-59
2021/09/23 05:19:43;;;;;;;2.12;1.98;;;;;;;17.08;48.21;99552.22;1772586;78;21037;-58
2021/09/23 05:22:11;;;;;;;2.10;2.00;;;;;;;17.09;48.22;99553.88;1779582;78;21053;-58
2021/09/23 05:24:37;;;;;;;2.22;2.02;;;;;;;17.09;48.22;99553.88;1768487;79;21471;-61
2021/09/23 05:27:03;;;;;;;1.82;1.72;;;;;;;17.09;48.21;99559.25;1790089;79;21093;-59
2021/09/23 05:29:30;;;;;;;2.08;1.87;;;;;;;17.10;48.19;99558.20;1776871;80;21146;-59
2021/09/23 05:31:57;;;;;;;1.95;1.85;;;;;;;17.11;48.16;99559.02;1769095;80;21013;-58
2021/09/23 05:34:23;;;;;;;2.40;2.20;;;;;;;17.12;48.14;99555.83;1761796;80;21516;-59
2021/09/23 05:36:50;;;;;;;1.92;1.82;;;;;;;17.13;48.13;99555.59;1781533;78;21584;-59
2021/09/23 05:39:16;;;;;;;2.15;2.00;;;;;;;17.15;48.14;99563.44;1779392;79;21549;-60
2021/09/23 05:41:43;;;;;;;1.80;1.70;;;;;;;17.15;48.11;99562.09;1766756;78;21082;-60
2021/09/23 05:44:10;;;;;;;2.17;2.02;;;;;;;17.15;48.11;99558.88;1779881;80;21603;-58
2021/09/23 05:46:37;;;;;;;2.15;1.95;;;;;;;17.15;48.10;99560.22;1773184;79;21021;-59
2021/09/23 05:49:05;;;;;;;2.37;2.17;;;;;;;17.15;48.10;99560.75;1768796;80;21014;-58
2021/09/23 05:51:32;;;;;;;2.12;1.95;;;;;;;17.15;48.09;99563.44;1791971;79;21100;-59
2021/09/23 05:53:58;;;;;;;1.80;1.70;;;;;;;17.16;48.05;99564.56;1787192;78;21071;-59
2021/09/23 05:56:24;;;;;;;2.00;1.80;;;;;;;17.17;48.08;99568.06;1785613;78;21541;-59
2021/09/23 05:58:53;;;;;;;2.45;2.25;;;;;;;17.18;48.04;99567.86;1810729;78;21013;-60
2021/09/23 06:01:19;;;;;;;2.25;2.05;;;;;;;17.19;48.03;99560.63;1779232;80;21089;-59
2021/09/23 06:03:47;;;;;;;2.30;2.10;;;;;;;17.19;48.01;99565.49;1778090;79;21497;-60
2021/09/23 06:06:17;;;;;;;2.20;2.00;;;;;;;17.20;48.00;99567.65;1775490;79;21104;-59
2021/09/23 06:08:43;;;;;;;2.12;1.92;;;;;;;17.21;48.00;99565.25;1778469;79;21009;-59
2021/09/23 06:11:11;;;;;;;2.25;2.05;;;;;;;17.22;47.99;99571.75;1787524;78;21561;-60
2021/09/23 06:13:38;;;;;;;2.10;1.90;;;;;;;17.22;47.95;99569.07;1772892;79;21031;-60
2021/09/23 06:16:06;;;;;;;2.47;2.17;;;;;;;17.25;47.97;99574.02;1775862;79;21057;-59
2021/09/23 06:18:32;;;;;;;2.70;2.50;;;;;;;17.26;47.95;99570.28;1792226;79;21218;-58
2021/09/23 06:21:00;;;;;;;2.08;1.98;;;;;;;17.28;47.92;99564.70;1764766;80;21532;-58
2021/09/23 06:23:27;;;;;;;2.85;2.65;;;;;;;17.29;47.89;99562.33;1780202;79;21048;-58
2021/09/23 06:25:55;;;;;;;2.05;1.90;;;;;;;17.31;47.88;99564.28;1781046;80;21703;-59
2021/09/23 06:28:21;;;;;;;1.80;1.70;;;;;;;17.34;47.84;99568.38;1791323;79;21039;-59
2021/09/23 06:30:50;;;;;;;2.33;2.12;;;;;;;17.34;47.81;99560.33;1811933;78;21026;-58
2021/09/23 06:33:17;;;;;;;2.10;1.90;;;;;;;17.35;47.79;99562.80;1812978;79;21076;-59
2021/09/23 06:35:44;;;;;;;2.33;2.12;;;;;;;17.37;47.77;99567.97;1774137;79;21056;-59
2021/09/23 06:38:12;;;;;;;2.20;2.00;;;;;;;17.37;47.75;99568.78;1774775;78;21119;-59
2021/09/23 06:40:39;;;;;;;2.20;2.00;;;;;;;17.38;47.74;99567.72;1768963;79;21124;-59
2021/09/23 06:43:05;;;;;;;2.05;1.95;;;;;;;17.40;47.74;99571.05;1775408;78;21140;-59
2021/09/23 06:45:32;;;;;;;2.25;2.05;;;;;;;17.41;47.70;99570.52;1769628;80;21037;-57
2021/09/23 06:48:00;;;;;;;1.95;1.85;;;;;;;17.41;47.67;99572.67;1783449;79;21526;-58
2021/09/23 06:50:26;;;;;;;2.20;2.00;;;;;;;17.42;47.66;99568.96;1790235;79;21055;-58
2021/09/23 06:52:53;;;;;;;2.22;2.02;;;;;;;17.42;47.63;99568.96;1770760;79;21096;-57
2021/09/23 06:55:19;;;;;;;1.92;1.82;;;;;;;17.42;47.62;99571.64;1783398;79;21185;-57
2021/09/23 06:57:46;;;;;;;1.92;1.82;;;;;;;17.43;47.59;99569.25;1768274;80;21037;-60
2021/09/23 07:00:32;;;;;;;2.37;2.17;;;;;;;17.44;47.57;99573.59;1773665;79;21101;-59
2021/09/23 07:03:06;;;;;;;1.85;1.75;;;;;;;17.44;47.58;99573.59;1756013;80;22038;-59
2021/09/23 07:05:34;;;;;;;1.82;1.72;;;;;;;17.44;47.57;99566.87;1767938;79;21037;-58
2021/09/23 07:08:01;;;;;;;2.00;1.80;;;;;;;17.44;47.55;99569.56;1767663;80;21095;-58
2021/09/23 07:10:28;;;;;;;2.08;1.80;;;;;;;17.45;47.53;99573.87;1787194;79;21023;-58
2021/09/23 07:14:45;;;;;;;2.75;2.08;;;;;;;17.51;47.55;99570.03;1871767;76;28283;-62
2021/09/23 07:17:14;;;;;;;7.70;3.45;;;;;;;17.45;47.98;99566.35;1845470;77;21079;-59
2021/09/23 07:19:40;;;;;;;8.98;3.75;;;;;;;17.55;56.70;99575.27;1837102;77;21212;-59
2021/09/23 07:22:08;;;;;;;4.08;3.35;;;;;;;17.68;57.73;99569.80;1847414;77;21497;-59
2021/09/23 07:24:36;;;;;;;5.62;3.10;;;;;;;17.78;57.27;99555.34;1848853;75;21001;-59
2021/09/23 07:27:03;;;;;;;6.37;3.10;;;;;;;17.85;57.25;99553.99;1841211;77;21020;-59
2021/09/23 07:29:29;;;;;;;7.17;3.08;;;;;;;17.91;57.17;99556.32;1845286;77;21072;-60
2021/09/23 07:31:57;;;;;;;5.12;3.00;;;;;;;17.94;57.02;99558.55;1844175;77;21126;-59
2021/09/23 07:34:23;;;;;;;4.47;3.02;;;;;;;17.96;56.87;99555.12;1836265;77;20931;-60
2021/09/23 07:36:49;;;;;;;3.37;2.77;;;;;;;17.99;56.82;99557.38;1839711;77;20992;-59
2021/09/23 07:39:16;;;;;;;3.95;3.08;;;;;;;18.01;56.74;99553.94;1830005;77;21434;-58
2021/09/23 07:41:44;;;;;;;5.42;2.52;;;;;;;18.03;56.77;99558.05;1846201;77;21040;-59
2021/09/23 07:44:13;;;;;;;4.12;2.90;;;;;;;18.05;56.72;99552.45;1839288;77;21051;-59
2021/09/23 07:46:39;;;;;;;3.45;2.80;;;;;;;18.07;56.72;99551.70;1854950;77;20998;-58
2021/09/23 07:49:06;;;;;;;5.62;2.70;;;;;;;18.09;56.71;99549.62;1851084;77;21017;-60
2021/09/23 07:51:35;;;;;;;6.70;2.90;;;;;;;18.13;56.70;99534.69;1844497;77;21504;-59
2021/09/23 07:54:01;;;;;;;6.15;2.70;;;;;;;18.14;56.53;99533.66;1842967;77;21129;-60
2021/09/23 07:56:30;;;;;;;4.03;2.50;;;;;;;18.16;56.31;99530.22;1848806;77;21136;-59
2021/09/23 07:58:59;;;;;;;3.72;2.75;;;;;;;18.18;56.04;99532.69;1854755;77;21033;-60
2021/09/23 08:01:26;;;;;;;3.62;2.90;;;;;;;18.20;55.82;99532.76;1848897;77;21013;-60
2021/09/23 08:03:55;;;;;;;6.40;2.83;;;;;;;18.22;55.64;99532.02;1841479;77;21053;-60
2021/09/23 08:06:22;;;;;;;3.58;2.30;;;;;;;18.24;55.47;99526.41;1841332;76;21528;-61
2021/09/23 08:08:49;;;;;;;2.92;2.42;;;;;;;18.26;55.32;99551.21;1840968;77;21127;-63
2021/09/23 08:11:17;;;;;;;3.50;2.60;;;;;;;18.28;55.28;99555.31;1843914;77;21056;-65
2021/09/23 08:13:46;;;;;;;2.52;2.20;;;;;;;18.31;55.28;99550.53;1827856;77;21024;-63
2021/09/23 08:16:14;;;;;;;4.25;2.40;;;;;;;18.32;55.10;99547.62;1848529;76;21986;-59
2021/09/23 08:18:51;;;;;;;4.33;2.60;;;;;;;18.34;54.89;99552.78;1826383;77;21028;-59
2021/09/23 08:21:19;;;;;;;4.65;2.67;;;;;;;18.34;54.64;99551.44;1772945;78;21774;-59
2021/09/23 08:23:47;;;;;;;5.55;2.37;;;;;;;18.34;54.44;99548.75;1850842;77;21016;-60
2021/09/23 08:26:14;;;;;;;4.00;2.42;;;;;;;18.34;54.23;99546.88;1842303;77;21029;-62
2021/09/23 08:28:40;;;;;;;5.45;2.45;;;;;;;18.34;54.03;99541.50;1821796;78;21028;-61
2021/09/23 08:31:08;;;;;;;3.27;2.30;;;;;;;18.35;53.82;99540.47;1821250;78;21084;-59
2021/09/23 08:33:36;;;;;;;3.30;2.40;;;;;;;18.35;53.63;99545.00;1786736;78;21143;-59
2021/09/23 08:36:04;;;;;;;2.95;2.20;;;;;;;18.36;53.43;99538.59;1772025;80;21557;-62
2021/09/23 08:38:31;;;;;;;4.75;2.92;;;;;;;18.36;53.23;99540.75;1765897;80;21093;-61
2021/09/23 08:40:57;;;;;;;3.17;2.47;;;;;;;18.36;53.04;99541.28;1776117;79;21694;-61
2021/09/23 08:43:24;;;;;;;2.80;2.50;;;;;;;18.36;52.85;99546.66;1789121;79;21009;-62
2021/09/23 08:45:55;;;;;;;3.47;2.35;;;;;;;18.35;52.71;99544.50;1788246;78;21099;-61
2021/09/23 08:48:23;;;;;;;2.40;2.17;;;;;;;18.34;52.54;99547.41;1789556;79;21077;-60
2021/09/23 08:50:50;;;;;;;3.30;2.42;;;;;;;18.33;52.40;99547.94;1785262;79;21010;-61
2021/09/23 08:53:16;;;;;;;3.35;2.47;;;;;;;18.33;52.27;99551.13;1757739;79;21624;-61
2021/09/23 08:55:44;;;;;;;3.42;2.17;;;;;;;18.32;52.13;99543.59;1788980;79;21017;-60
2021/09/23 08:58:12;;;;;;;2.95;2.10;;;;;;;18.31;52.00;99541.12;1775585;79;21194;-62
2021/09/23 09:01:01;;;;;;;5.60;2.62;;;;;;;18.31;51.86;99548.69;1786325;79;21020;-60
2021/09/23 09:03:33;;;;;;;3.33;2.33;;;;;;;18.31;51.74;99547.84;1784168;79;21493;-63
2021/09/23 09:06:05;;;;;;;2.55;2.35;;;;;;;18.29;51.62;99541.34;1789060;78;21041;-60
2021/09/23 09:08:35;;;;;;;2.75;2.20;;;;;;;18.30;51.50;99544.87;1782772;80;20985;-60
2021/09/23 09:11:07;;;;;;;2.40;2.20;;;;;;;18.28;51.42;99547.25;1758382;80;21431;-62
2021/09/23 09:13:45;;;;;;;2.05;1.72;;;;;;;18.29;51.31;99546.72;1758299;80;21097;-60
2021/09/23 09:16:18;;;;;;;3.55;2.20;;;;;;;18.31;51.22;99543.31;1787585;78;21116;-60
2021/09/23 09:18:47;;;;;;;2.47;2.20;;;;;;;18.31;51.10;99541.97;1805927;78;21033;-61
2021/09/23 09:21:18;;;;;;;3.45;2.00;;;;;;;18.31;50.98;99542.47;1777520;79;21036;-61
2021/09/23 09:23:55;;;;;;;3.30;2.08;;;;;;;18.31;50.88;99537.93;1772560;80;21167;-63
2021/09/23 09:26:41;;;;;;;2.37;1.77;;;;;;;18.31;50.76;99531.71;1800942;78;20997;-62
2021/09/23 09:29:09;;;;;;;2.80;2.15;;;;;;;18.33;50.67;99530.96;1804698;78;21581;-61
2021/09/23 09:31:36;;;;;;;2.70;1.72;;;;;;;18.34;50.56;99530.74;1788256;80;21068;-61
2021/09/23 09:34:05;;;;;;;1.98;1.80;;;;;;;18.34;50.49;99533.96;1784836;78;21057;-61
2021/09/23 09:36:50;;;;;;;1.92;1.67;;;;;;;18.35;50.40;99526.18;1809215;78;21365;-61
2021/09/23 09:39:21;;;;;;;2.72;2.20;;;;;;;18.36;50.31;99531.34;1804673;78;21520;-61
2021/09/23 09:41:53;;;;;;;2.20;2.00;;;;;;;18.35;50.22;99536.44;1785082;78;21010;-60
2021/09/23 09:44:21;;;;;;;2.10;1.98;;;;;;;18.35;50.15;99528.87;1783502;79;21470;-59
2021/09/23 09:46:53;;;;;;;1.82;1.70;;;;;;;18.35;50.08;99538.28;1768912;79;21013;-61
2021/09/23 09:49:22;;;;;;;4.60;2.00;;;;;;;18.33;50.03;99533.65;1791956;79;21105;-62
2021/09/23 09:51:58;;;;;;;1.80;1.70;;;;;;;18.32;49.96;99534.18;1784573;79;21093;-61
2021/09/23 09:54:26;;;;;;;2.62;1.80;;;;;;;18.33;49.92;99537.69;1788752;79;21075;-60
2021/09/23 09:56:58;;;;;;;3.25;2.10;;;;;;;18.32;49.84;99540.09;1785184;79;21549;-60
2021/09/23 09:59:25;;;;;;;2.45;2.12;;;;;;;18.31;49.80;99539.78;1786500;79;21060;-61
2021/09/23 10:01:56;;;;;;;2.35;2.15;;;;;;;18.30;49.75;99540.30;1784825;79;21238;-60
2021/09/23 10:04:27;;;;;;;2.10;1.90;;;;;;;18.28;49.70;99541.05;1785541;79;21132;-63
2021/09/23 10:06:55;;;;;;;2.37;1.98;;;;;;;18.27;49.66;99544.27;1808325;78;21049;-60
2021/09/23 10:09:22;;;;;;;1.77;1.62;;;;;;;18.25;49.63;99540.98;1731813;80;21084;-60
2021/09/23 10:11:49;;;;;;;2.62;2.10;;;;;;;18.25;49.61;99541.48;1772842;80;21496;-63
2021/09/23 10:14:18;;;;;;;2.40;2.20;;;;;;;18.23;49.57;99547.11;1773369;80;21810;-62
2021/09/23 10:16:47;;;;;;;2.60;2.10;;;;;;;18.23;49.54;99547.61;1757394;80;21604;-61
2021/09/23 10:19:15;;;;;;;1.82;1.67;;;;;;;18.21;49.51;99544.33;1791694;78;21437;-59
2021/09/23 10:21:43;;;;;;;1.92;1.75;;;;;;;18.21;49.47;99545.14;1769207;80;21001;-60
2021/09/23 10:24:11;;;;;;;2.20;1.90;;;;;;;18.22;49.44;99541.95;1796192;78;21065;-60
2021/09/23 10:26:40;;;;;;;2.77;2.58;;;;;;;18.23;49.40;99544.92;1793326;78;21847;-60
2021/09/23 10:29:10;;;;;;;2.95;1.90;;;;;;;18.22;49.36;99538.73;1773444;80;21643;-64
2021/09/23 10:31:37;;;;;;;2.45;1.87;;;;;;;18.24;49.31;99540.67;1757426;80;21022;-62
2021/09/23 10:34:06;;;;;;;2.10;1.90;;;;;;;18.25;49.29;99538.80;1754888;80;21508;-60
2021/09/23 10:36:35;;;;;;;2.98;1.95;;;;;;;18.26;49.22;99538.58;1778777;80;21643;-60
2021/09/23 10:39:05;;;;;;;2.42;1.52;;;;;;;18.27;49.20;99539.39;1763314;80;21166;-60
2021/09/23 10:41:39;;;;;;;2.40;2.20;;;;;;;18.29;49.13;99541.34;1782318;80;20997;-60
2021/09/23 10:44:06;;;;;;;1.82;1.72;;;;;;;18.30;49.07;99541.66;1726211;80;21097;-60
2021/09/23 10:46:33;;;;;;;2.37;1.95;;;;;;;18.31;49.03;99536.59;1731922;81;21112;-60
2021/09/23 10:49:01;;;;;;;2.15;1.95;;;;;;;18.31;48.98;99539.28;1756259;80;21018;-61
2021/09/23 10:51:31;;;;;;;2.40;1.95;;;;;;;18.33;48.91;99540.38;1741937;79;21562;-61
2021/09/23 10:54:00;;;;;;;1.70;1.60;;;;;;;18.31;48.87;99535.74;1753797;79;21058;-60
2021/09/23 10:56:29;;;;;;;2.10;1.90;;;;;;;18.32;48.85;99540.09;1783393;79;21088;-60
2021/09/23 10:58:57;;;;;;;2.25;1.85;;;;;;;18.31;48.81;99536.59;1777831;79;21513;-60
2021/09/23 11:01:30;;;;;;;2.45;1.90;;;;;;;18.30;48.77;99536.27;1757940;79;21123;-61
2021/09/23 11:04:01;;;;;;;2.15;1.95;;;;;;;18.28;48.76;99536.49;1793522;79;21013;-60
2021/09/23 11:06:36;;;;;;;3.33;1.80;;;;;;;18.27;48.73;99532.17;1786411;79;21040;-60
2021/09/23 11:09:21;;;;;;;2.10;1.70;;;;;;;18.26;48.71;99533.20;1785613;79;21069;-60
2021/09/23 11:11:58;;;;;;;1.85;1.75;;;;;;;18.25;48.70;99542.33;1771479;79;21599;-62
2021/09/23 11:14:27;;;;;;;3.10;1.90;;;;;;;18.25;48.74;99539.64;1787841;79;21062;-60
2021/09/23 11:16:57;;;;;;;4.22;2.12;;;;;;;18.27;49.42;99542.93;1796652;79;21010;-61
2021/09/23 11:19:25;;;;;;;2.05;1.60;;;;;;;18.30;50.22;99543.53;1768544;79;21097;-61
2021/09/23 11:21:56;;;;;;;2.40;2.00;;;;;;;18.32;50.42;99542.78;1795243;79;21483;-63
2021/09/23 11:24:26;;;;;;;2.25;1.80;;;;;;;18.33;50.42;99543.91;1797688;79;22157;-63
2021/09/23 11:26:53;;;;;;;5.60;2.35;;;;;;;18.34;50.39;99544.72;1794867;79;21080;-62
2021/09/23 11:29:22;;;;;;;5.15;2.22;;;;;;;18.34;50.32;99542.84;1795548;79;21522;-62
2021/09/23 11:31:56;;;;;;;5.37;2.05;;;;;;;18.35;50.22;99545.84;1789487;79;21092;-61
2021/09/23 11:34:38;;;;;;;5.50;2.40;;;;;;;18.34;50.10;99544.19;1789390;79;21017;-61
2021/09/23 11:37:07;;;;;;;1.90;1.70;;;;;;;18.35;50.01;99540.97;1793666;79;22200;-61
2021/09/23 11:39:37;;;;;;;4.58;2.45;;;;;;;18.34;49.93;99539.34;1782984;79;21096;-61
2021/09/23 11:42:14;;;;;;;2.33;1.98;;;;;;;18.32;49.85;99536.05;1775980;79;21220;-61